Time;durP1;ratioP1;P1;durP2;ratioP2;P2;SDS_P1;SDS_P2;PMS_P1;PMS_P2;Temp;Humidity;BMP_temperature;BMP_pressure;BME280_temperature;BME280_humidity;BME280_pressure;Samples;Min_cycle;Max_cycle;Signal;HPM_P1;HPM_P2
2023/01/16 00:01:10;;;;;;;4.25;0.95;;;5.40;99.90;;;3.79;93.51;99270.75;4961016;28;20053;-81
2023/01/16 00:03:36;;;;;;;3.28;0.93;;;5.40;99.90;;;3.86;93.16;99271.31;4878132;28;20065;-82
2023/01/16 00:06:04;;;;;;;3.53;0.73;;;5.50;99.90;;;3.96;92.88;99270.03;4950990;28;20037;-82
2023/01/16 00:08:30;;;;;;;8.10;0.90;;;5.50;99.90;;;4.04;92.30;99285.31;4944294;28;20046;-82
2023/01/16 00:11:05;;;;;;;3.17;0.82;;;5.60;99.90;;;4.03;91.87;99278.44;4892529;28;20828;-82
2023/01/16 00:13:31;;;;;;;5.22;0.93;;;5.60;99.90;;;4.06;91.75;99273.06;4901192;23;20047;-82
2023/01/16 00:15:57;;;;;;;5.20;0.88;;;5.60;99.90;;;4.06;91.75;99273.06;4870191;28;20047;-81
2023/01/16 00:18:23;;;;;;;2.65;0.60;;;5.70;99.90;;;4.11;91.91;99274.56;4856202;28;20062;-82
2023/01/16 00:20:55;;;;;;;4.28;0.85;;;5.70;99.90;;;4.12;91.80;99262.38;4867492;28;20031;-81
2023/01/16 00:23:21;;;;;;;1.77;0.60;;;5.70;99.90;;;4.15;91.82;99266.63;4890686;28;20057;-83
2023/01/16 00:25:46;;;;;;;5.20;1.10;;;5.70;99.90;;;4.08;91.42;99273.84;4855783;28;20039;-82
2023/01/16 00:28:14;;;;;;;3.17;0.88;;;5.60;99.90;;;4.01;91.87;99275.03;4851619;28;20049;-82
2023/01/16 00:30:58;;;;;;;;;;;;;;;;;;;;;
2023/01/16 00:33:25;;;;;;;5.78;0.77;;;5.60;99.90;;;3.92;92.45;99265.03;4875208;28;20684;-82
2023/01/16 00:35:51;;;;;;;8.32;1.00;;;5.60;99.90;;;3.88;92.41;99270.34;4902897;28;20035;-82
2023/01/16 00:38:17;;;;;;;1.50;0.50;;;5.50;99.90;;;3.83;92.78;99261.06;4872437;28;20032;-82
2023/01/16 00:40:43;;;;;;;5.38;0.70;;;5.50;99.90;;;3.79;92.95;99272.50;4885814;28;20133;-82
2023/01/16 00:43:09;;;;;;;4.20;0.80;;;5.40;99.90;;;3.67;93.52;99268.63;4870286;28;20091;-82
2023/01/16 00:45:35;;;;;;;2.25;0.70;;;5.30;99.90;;;3.56;93.72;99263.03;4876775;28;20044;-82
2023/01/16 00:48:09;;;;;;;3.95;1.00;;;5.20;99.90;;;3.51;94.11;99268.44;4871045;28;20090;-82
2023/01/16 00:50:35;;;;;;;3.85;0.60;;;5.20;99.90;;;3.43;94.47;99268.72;4902661;28;20180;-81
2023/01/16 00:53:01;;;;;;;12.27;1.00;;;5.10;99.90;;;3.39;94.79;99274.13;4892945;23;20039;-82
2023/01/16 00:55:27;;;;;;;5.95;0.80;;;5.00;99.90;;;3.32;94.90;99276.13;4916949;28;20055;-82
2023/01/16 00:57:58;;;;;;;10.32;1.40;;;5.00;99.90;;;3.32;95.17;99275.28;4933596;28;20033;-83
2023/01/16 01:00:25;;;;;;;5.38;1.10;;;5.00;99.90;;;3.27;95.38;99278.91;4942956;28;20030;-83
2023/01/16 01:02:51;;;;;;;4.70;0.93;;;5.00;99.90;;;3.29;95.95;99281.47;4959467;28;20030;-83
2023/01/16 01:05:16;;;;;;;8.07;1.63;;;4.90;99.90;;;3.32;96.19;99281.34;4963116;28;20034;-81
2023/01/16 01:07:42;;;;;;;7.70;1.27;;;5.00;99.90;;;3.38;96.11;99277.66;4949830;28;20039;-80
2023/01/16 01:10:14;;;;;;;4.90;1.30;;;5.00;99.90;;;3.35;96.65;99273.41;4961921;28;20056;-81
2023/01/16 01:12:40;;;;;;;6.30;1.35;;;5.00;99.90;;;3.41;96.61;99277.50;4948801;28;20050;-82
2023/01/16 01:15:06;;;;;;;4.60;1.33;;;5.10;99.90;;;3.47;96.46;99283.31;4926298;23;20077;-83
2023/01/16 01:17:32;;;;;;;4.65;1.40;;;5.10;99.90;;;3.51;96.66;99288.41;4935209;28;20047;-82
2023/01/16 01:19:58;;;;;;;4.57;1.38;;;5.10;99.90;;;3.56;96.47;99287.31;4876674;28;20038;-81
2023/01/16 01:22:29;;;;;;;3.65;1.13;;;5.20;99.90;;;3.57;96.62;99288.16;4896992;28;20114;-82
2023/01/16 01:24:55;;;;;;;8.57;1.30;;;5.20;99.90;;;3.62;96.35;99291.41;4923701;28;20090;-81
2023/01/16 01:27:21;;;;;;;6.57;1.15;;;5.30;99.90;;;3.61;95.75;99284.53;4953122;28;20711;-82
2023/01/16 01:29:47;;;;;;;5.28;1.45;;;5.20;99.90;;;3.58;96.08;99293.28;4925649;28;20107;-82
2023/01/16 01:32:13;;;;;;;10.35;1.60;;;5.20;99.90;;;3.55;95.79;99292.59;4947315;28;20409;-82
2023/01/16 01:34:39;;;;;;;6.70;1.48;;;5.20;99.90;;;3.42;96.20;99297.44;4945197;23;20108;-81
2023/01/16 01:37:10;;;;;;;6.20;1.48;;;5.10;99.90;;;3.41;96.38;99291.41;4955355;28;20041;-82
2023/01/16 01:39:36;;;;;;;7.50;1.50;;;5.10;99.90;;;3.33;96.25;99283.03;4941981;28;20055;-82
2023/01/16 01:44:56;;;;;;;8.68;1.85;;;4.90;99.90;;;3.20;97.37;99289.66;4932581;28;20521;-81
2023/01/16 01:47:38;;;;;;;6.18;1.50;;;4.80;99.90;;;3.15;97.80;99288.97;4936601;28;20498;-82
2023/01/16 01:50:19;;;;;;;6.63;1.65;;;4.80;99.90;;;3.11;97.88;99287.38;4976164;28;20415;-82
2023/01/16 01:52:45;;;;;;;6.05;2.00;;;4.80;99.90;;;3.09;98.18;99290.06;4962621;28;20047;-82
2023/01/16 01:55:21;;;;;;;8.32;1.70;;;4.80;99.90;;;3.07;98.29;99284.06;4934716;28;20085;-82
2023/01/16 01:57:56;;;;;;;7.15;1.70;;;4.80;99.90;;;3.05;98.96;99284.13;4932946;28;20679;-81
2023/01/16 02:00:26;;;;;;;6.53;2.00;;;4.70;99.90;;;3.01;98.97;99282.53;4918816;28;20034;-82
2023/01/16 02:03:17;;;;;;;6.47;1.88;;;4.70;99.90;;;2.97;99.23;99285.31;4893466;28;20433;-82
2023/01/16 02:05:49;;;;;;;5.72;1.60;;;4.60;99.90;;;2.96;99.47;99284.50;4937025;28;20030;-82
2023/01/16 02:08:24;;;;;;;5.80;1.70;;;4.60;99.90;;;2.97;99.82;99286.16;4942009;28;20037;-82
2023/01/16 02:11:26;;;;;;;6.22;1.90;;;4.60;99.90;;;2.98;99.76;99284.41;4911717;28;20070;-82
2023/01/16 02:14:12;;;;;;;7.65;1.75;;;4.60;99.90;;;2.98;100.00;99282.69;4971330;28;20109;-83
2023/01/16 02:19:35;;;;;;;5.25;1.45;;;4.60;99.90;;;2.96;99.78;99281.00;4967242;28;20099;-83
2023/01/16 02:22:46;;;;;;;5.90;1.70;;;4.60;99.90;;;2.93;100.00;99278.53;4946422;28;20056;-82
2023/01/16 02:25:42;;;;;;;6.07;1.55;;;4.50;99.90;;;2.91;100.00;99281.19;4958891;28;20636;-82
2023/01/16 02:29:03;;;;;;;3.33;1.63;;;4.50;99.90;;;2.88;100.00;99276.97;4959324;28;20095;-82
2023/01/16 02:31:51;;;;;;;;;;;;;;;;;;;;;
2023/01/16 02:34:34;;;;;;;5.47;2.03;;;4.40;99.90;;;2.75;100.00;99280.94;4904786;28;20528;-82
2023/01/16 02:37:23;;;;;;;3.75;1.70;;;4.40;99.90;;;2.71;100.00;99284.56;4969893;28;20030;-82
2023/01/16 02:40:13;;;;;;;6.65;2.05;;;4.30;99.90;;;2.68;100.00;99287.28;4922964;28;20034;-81
2023/01/16 02:43:03;;;;;;;6.90;2.22;;;;;;;2.61;100.00;99278.88;4941694;28;20018;-81
2023/01/16 02:45:49;;;;;;;6.65;2.28;;;4.20;99.90;;;2.54;100.00;99274.78;4965803;28;20065;-81
2023/01/16 02:48:45;;;;;;;5.45;2.00;;;4.20;99.90;;;2.50;100.00;99275.78;4952757;28;20614;-80
2023/01/16 02:51:22;;;;;;;6.10;1.93;;;4.20;99.90;;;2.47;100.00;99276.75;4974939;28;20033;-81
2023/01/16 02:54:32;;;;;;;11.90;2.47;;;4.10;99.90;;;2.42;100.00;99273.50;4970205;28;20561;-81
2023/01/16 02:57:25;;;;;;;8.60;2.88;;;4.10;99.90;;;2.42;100.00;99277.84;4915273;28;20470;-81
2023/01/16 02:59:54;;;;;;;11.18;3.00;;;4.10;99.90;;;2.38;100.00;99278.88;4910912;28;20058;-81
2023/01/16 03:02:19;;;;;;;9.52;2.80;;;4.10;99.90;;;2.38;100.00;99282.31;4923428;28;20038;-82
2023/01/16 03:04:55;;;;;;;5.65;2.67;;;4.10;99.90;;;2.40;100.00;99284.84;4950022;28;20029;-81
2023/01/16 03:08:10;;;;;;;9.93;2.88;;;4.00;99.90;;;2.43;100.00;99284.72;4945723;28;20547;-81
2023/01/16 03:11:09;;;;;;;12.80;3.08;;;4.00;99.90;;;2.43;100.00;99282.13;4910483;28;20054;-81
2023/01/16 03:14:05;;;;;;;10.35;2.33;;;4.10;99.90;;;2.47;100.00;99286.31;4964539;28;20049;-81
2023/01/16 03:16:54;;;;;;;6.25;2.47;;;4.10;99.90;;;2.48;100.00;99280.19;4954534;28;20046;-81
2023/01/16 03:20:07;;;;;;;11.18;3.08;;;4.10;99.90;;;2.55;100.00;99288.63;4930041;28;20052;-81
2023/01/16 03:23:24;;;;;;;10.98;2.95;;;4.10;99.90;;;2.62;100.00;99288.34;4945772;28;20081;-81
2023/01/16 03:26:10;;;;;;;7.55;2.67;;;4.20;99.90;;;2.70;100.00;99289.81;4900892;28;20033;-80
2023/01/16 03:28:53;;;;;;;8.27;2.47;;;4.20;99.90;;;2.73;100.00;99284.50;4915023;28;20054;-81
2023/01/16 03:31:47;;;;;;;10.70;2.60;;;4.30;99.90;;;2.70;100.00;99287.22;4983278;28;20340;-82
2023/01/16 03:34:47;;;;;;;9.30;2.63;;;4.20;99.90;;;2.63;100.00;99284.81;4964972;28;20083;-82
2023/01/16 03:37:45;;;;;;;9.18;2.75;;;4.20;99.90;;;2.60;100.00;99279.75;4921928;28;20033;-82
2023/01/16 03:40:23;;;;;;;13.90;2.90;;;4.10;99.90;;;2.57;100.00;99277.28;4928932;28;20058;-82
2023/01/16 03:43:25;;;;;;;8.60;2.60;;;4.10;99.90;;;2.59;100.00;99272.88;4929000;28;20048;-82
2023/01/16 03:46:17;;;;;;;12.23;2.88;;;4.20;99.90;;;2.65;100.00;99264.84;4961575;28;20141;-81
2023/01/16 03:48:58;;;;;;;11.55;3.08;;;4.20;99.90;;;2.76;100.00;99272.22;4931386;28;20038;-82
2023/01/16 03:51:32;;;;;;;12.70;2.80;;;4.40;99.90;;;2.91;100.00;99273.41;4959659;28;20110;-82
2023/01/16 03:54:12;;;;;;;13.00;2.75;;;4.50;99.90;;;3.05;100.00;99267.69;4923199;28;20034;-82
2023/01/16 03:57:09;;;;;;;;;;;;;;;;;;;;;
2023/01/16 03:59:37;;;;;;;11.38;2.85;;;4.70;99.90;;;3.35;100.00;99282.97;4926669;28;20500;-81
2023/01/16 04:02:19;;;;;;;11.75;2.92;;;4.90;99.90;;;3.41;100.00;99267.97;4918988;28;20033;-81
2023/01/16 04:05:28;;;;;;;10.38;2.53;;;4.90;99.90;;;3.47;100.00;99275.50;4990290;28;20188;-82
2023/01/16 04:08:12;;;;;;;12.43;2.65;;;5.00;99.90;;;3.56;100.00;99263.03;4951255;28;20875;-82
2023/01/16 04:10:50;;;;;;;8.07;2.22;;;5.10;99.90;;;3.59;100.00;99255.13;4962355;28;20030;-81
2023/01/16 04:13:45;;;;;;;10.90;2.58;;;5.10;99.90;;;3.67;100.00;99266.03;4859987;28;20042;-81
2023/01/16 04:16:23;;;;;;;7.78;2.40;;;;;;;3.69;100.00;99265.09;4933723;28;20034;-82
2023/01/16 04:18:55;;;;;;;12.57;2.00;;;5.20;99.90;;;3.72;100.00;99263.25;4924767;28;20046;-82
2023/01/16 04:21:32;;;;;;;8.02;1.88;;;5.20;99.90;;;3.72;100.00;99258.91;4912462;28;20037;-81
2023/01/16 04:23:59;;;;;;;8.38;1.80;;;5.20;99.90;;;3.73;100.00;99244.97;4925636;28;20038;-81
2023/01/16 04:26:33;;;;;;;9.10;1.65;;;5.30;99.90;;;3.72;100.00;99238.06;4917895;28;20809;-82
2023/01/16 04:28:59;;;;;;;8.90;1.33;;;5.30;99.90;;;3.76;100.00;99238.75;4934259;28;20055;-82
2023/01/16 04:31:27;;;;;;;7.70;1.60;;;5.30;99.90;;;3.80;100.00;99238.59;4931255;28;20137;-81
2023/01/16 04:33:56;;;;;;;11.43;2.10;;;5.30;99.90;;;3.82;100.00;99233.31;4950118;28;20038;-83
2023/01/16 04:36:22;;;;;;;7.78;1.30;;;5.40;99.90;;;3.82;100.00;99234.19;4927699;28;20042;-82
2023/01/16 04:38:48;;;;;;;7.65;1.27;;;5.40;99.90;;;3.87;100.00;99241.78;4930224;28;20176;-81
2023/01/16 04:41:35;;;;;;;6.07;1.50;;;5.40;99.90;;;3.89;100.00;99247.78;4945710;28;20050;-82
2023/01/16 04:44:10;;;;;;;7.50;1.30;;;5.40;99.90;;;3.88;100.00;99246.06;4964062;28;20057;-82
2023/01/16 04:46:39;;;;;;;10.57;1.50;;;5.40;99.90;;;3.88;100.00;99244.31;4950651;28;20065;-81
2023/01/16 04:49:14;;;;;;;7.68;1.17;;;5.40;99.90;;;3.87;100.00;99241.78;4928857;28;20114;-81
2023/01/16 04:51:40;;;;;;;5.87;1.00;;;5.40;99.90;;;3.83;100.00;99246.25;4971234;28;20376;-82
2023/01/16 04:54:17;;;;;;;9.30;1.35;;;5.40;99.90;;;3.79;100.00;99243.88;4941462;28;20033;-81
2023/01/16 04:56:43;;;;;;;9.65;1.30;;;5.40;99.90;;;3.78;100.00;99248.22;4931171;28;20052;-82
2023/01/16 04:59:17;;;;;;;9.45;1.55;;;5.40;99.90;;;3.76;100.00;99239.63;4925468;28;20041;-82
2023/01/16 05:01:44;;;;;;;10.25;1.35;;;;;;;3.74;100.00;99241.47;4896610;28;20073;-82
2023/01/16 05:04:13;;;;;;;4.38;1.23;;;5.30;99.90;;;3.75;100.00;99226.69;4914985;28;20099;-82
2023/01/16 05:06:48;;;;;;;9.48;1.70;;;5.30;99.90;;;3.76;100.00;99224.00;4949668;28;20042;-82
2023/01/16 05:09:14;;;;;;;10.63;2.03;;;5.30;99.90;;;3.77;100.00;99223.09;4900066;28;20050;-82
2023/01/16 05:11:40;;;;;;;8.57;1.77;;;5.30;99.90;;;3.74;100.00;99223.22;4934330;28;20037;-82
2023/01/16 05:14:07;;;;;;;9.80;1.35;;;;;;;3.67;100.00;99213.97;4904882;28;20035;-80
2023/01/16 05:16:41;;;;;;;11.20;1.58;;;5.20;99.90;;;3.55;100.00;99211.91;4918930;28;20044;-80
2023/01/16 05:19:08;;;;;;;7.88;1.60;;;5.10;99.90;;;3.43;100.00;99208.88;4972323;28;20026;-81
2023/01/16 05:21:34;;;;;;;7.82;1.73;;;5.00;99.90;;;3.25;100.00;99200.09;4907578;28;20045;-82
2023/01/16 05:24:08;;;;;;;8.32;2.28;;;4.80;99.90;;;3.10;100.00;99203.31;4901994;28;20497;-81
2023/01/16 05:26:36;;;;;;;7.38;2.00;;;;;;;2.97;100.00;99204.72;4964241;28;20042;-82
2023/01/16 05:29:02;;;;;;;8.48;2.08;;;4.50;99.90;;;2.83;100.00;99207.84;4946493;28;20069;-82
2023/01/16 05:31:37;;;;;;;10.13;2.20;;;4.40;99.90;;;2.65;100.00;99197.25;4909845;28;20072;-82
2023/01/16 05:34:03;;;;;;;4.95;1.20;;;4.30;99.90;;;2.56;100.00;99197.63;4945464;28;20121;-81
2023/01/16 05:36:29;;;;;;;7.60;1.58;;;4.20;99.90;;;2.47;100.00;99190.19;4938878;28;20033;-81
2023/01/16 05:38:55;;;;;;;10.38;1.70;;;4.10;99.90;;;2.44;100.00;99185.09;4928593;28;20038;-80
2023/01/16 05:41:27;;;;;;;11.30;1.77;;;;;;;2.48;100.00;99199.66;4895102;28;20124;-82
2023/01/16 05:43:53;;;;;;;11.30;2.05;;;4.10;99.90;;;2.51;100.00;99188.31;4943542;28;20038;-81
2023/01/16 05:46:29;;;;;;;;;;;;;;;;;;;;;
2023/01/16 05:48:55;;;;;;;;;;;4.10;99.90;;;2.51;100.00;99191.75;4921041;28;20597;-80
2023/01/16 05:51:23;;;;;;;4.45;0.98;;;4.10;99.90;;;2.60;100.00;99187.97;4887891;28;20368;-82
2023/01/16 05:53:51;;;;;;;5.70;1.42;;;4.20;99.90;;;2.67;100.00;99194.59;4927621;28;20090;-81
2023/01/16 05:56:25;;;;;;;4.55;1.10;;;4.30;99.90;;;2.78;100.00;99191.59;4900093;28;20135;-82
2023/01/16 05:58:56;;;;;;;9.13;1.00;;;4.30;99.90;;;2.87;100.00;99199.91;4912349;28;20014;-81
2023/01/16 06:01:28;;;;;;;8.48;1.02;;;;;;;2.94;100.00;99190.09;4908414;28;20034;-82
2023/01/16 06:03:54;;;;;;;3.97;1.05;;;4.50;99.90;;;3.03;100.00;99201.88;4922271;28;20128;-81
2023/01/16 06:06:20;;;;;;;7.93;1.27;;;4.50;99.90;;;3.12;100.00;99193.69;4944131;28;20131;-81
2023/01/16 06:08:55;;;;;;;4.85;1.00;;;4.60;99.90;;;3.18;100.00;99192.63;4904425;28;20049;-81
2023/01/16 06:11:24;;;;;;;5.28;0.82;;;4.60;99.90;;;3.18;100.00;99190.00;4911095;28;20077;-82
2023/01/16 06:13:50;;;;;;;5.47;1.02;;;4.70;99.90;;;3.21;100.00;99189.88;4912262;28;20065;-82
2023/01/16 06:16:25;;;;;;;3.60;0.95;;;5.40;99.90;;;3.20;100.00;99189.03;4917846;28;20046;-81
2023/01/16 06:18:51;;;;;;;11.00;1.13;;;4.70;99.90;;;3.23;100.00;99182.84;4899560;28;20042;-82
2023/01/16 06:21:16;;;;;;;5.72;1.35;;;4.80;99.90;;;3.28;100.00;99186.97;4932790;28;20041;-81
2023/01/16 06:23:50;;;;;;;6.68;0.90;;;4.80;99.90;;;3.31;100.00;99191.19;4951993;28;20037;-82
2023/01/16 06:26:16;;;;;;;11.65;1.10;;;4.80;99.90;;;3.34;100.00;99174.59;4927580;28;20037;-79
2023/01/16 06:28:42;;;;;;;5.45;1.00;;;4.90;99.90;;;3.37;100.00;99183.16;4935941;28;20492;-82
2023/01/16 06:31:08;;;;;;;2.92;0.85;;;4.90;99.90;;;3.39;100.00;99173.53;4946193;28;20038;-82
2023/01/16 06:33:34;;;;;;;5.40;1.10;;;4.90;99.90;;;3.41;100.00;99182.09;4956884;28;20129;-81
2023/01/16 06:36:06;;;;;;;6.07;1.23;;;4.90;99.90;;;3.41;100.00;99176.03;4914580;28;20046;-81
2023/01/16 06:38:32;;;;;;;3.63;0.80;;;4.90;99.90;;;3.44;99.93;99175.94;4913768;28;20081;-82
2023/01/16 06:40:58;;;;;;;7.05;1.05;;;4.90;99.90;;;3.38;99.63;99170.97;4938995;28;20034;-80
2023/01/16 06:43:34;;;;;;;5.22;1.08;;;4.90;99.90;;;3.39;99.48;99170.91;4929724;28;20057;-80
2023/01/16 06:46:00;;;;;;;4.28;0.93;;;4.90;99.90;;;3.40;98.73;99170.00;5004162;28;20042;-81
2023/01/16 06:48:26;;;;;;;5.07;1.00;;;4.90;99.90;;;3.37;98.73;99170.13;4927083;28;20165;-81
2023/01/16 06:50:53;;;;;;;5.68;0.70;;;4.80;99.90;;;3.39;98.52;99173.53;4935394;28;20046;-82
2023/01/16 06:53:24;;;;;;;8.13;1.23;;;4.90;99.90;;;3.39;98.55;99170.91;4935921;28;20513;-82
2023/01/16 06:55:55;;;;;;;4.90;0.90;;;4.90;99.90;;;3.41;98.80;99169.09;4924239;28;20081;-82
2023/01/16 06:58:21;;;;;;;7.07;0.95;;;4.90;99.90;;;3.38;98.70;99170.97;4906958;28;20122;-82
2023/01/16 07:00:56;;;;;;;7.28;1.08;;;4.90;99.90;;;3.40;98.27;99166.56;4926360;28;20034;-81
2023/01/16 07:03:25;;;;;;;7.20;1.15;;;;;;;3.38;98.38;99164.00;4926640;28;20106;-82
2023/01/16 07:05:58;;;;;;;7.68;1.05;;;4.90;99.90;;;3.39;98.56;99160.50;4911773;28;20062;-81
2023/01/16 07:08:24;;;;;;;7.63;1.20;;;4.90;99.90;;;3.35;98.49;99160.69;4934213;28;20033;-82
2023/01/16 07:10:53;;;;;;;6.30;0.98;;;;;;;3.32;98.37;99166.84;4959317;28;20089;-81
2023/01/16 07:13:26;;;;;;;9.13;1.60;;;4.90;99.90;;;3.33;98.24;99165.97;4931020;28;20033;-81
2023/01/16 07:24:29;;;;;;;5.75;0.90;;;4.70;99.90;;;3.17;98.90;99159.69;4942089;28;20082;-82
2023/01/16 07:27:00;;;;;;;3.20;0.82;;;4.70;99.90;;;3.20;98.62;99173.44;4937931;28;20045;-82
2023/01/16 07:29:33;;;;;;;9.82;1.60;;;4.80;99.90;;;3.20;98.55;99168.22;4943378;28;20126;-81
2023/01/16 07:32:01;;;;;;;10.20;1.30;;;4.70;99.90;;;3.15;98.80;99164.13;4959779;28;20065;-82
2023/01/16 07:34:27;;;;;;;3.45;0.70;;;4.70;99.90;;;3.16;98.82;99164.06;4897141;23;20056;-82
2023/01/16 07:37:05;;;;;;;10.52;0.95;;;4.70;99.90;;;3.20;98.74;99163.03;4880375;28;20512;-80
2023/01/16 07:39:32;;;;;;;5.15;1.10;;;;;;;3.15;98.27;99164.13;4864383;28;20405;-82
2023/01/16 07:42:07;;;;;;;7.55;1.35;;;4.70;99.90;;;3.16;99.01;99165.81;4890745;28;20165;-82
2023/01/16 07:44:34;;;;;;;3.47;0.80;;;4.70;99.90;;;3.17;99.12;99160.53;4894545;28;20040;-81
2023/01/16 07:47:02;;;;;;;4.43;1.00;;;4.70;99.90;;;3.13;98.74;99160.72;4899258;28;20106;-82
2023/01/16 07:49:37;;;;;;;5.13;0.85;;;4.70;99.90;;;3.15;98.90;99153.72;4902627;28;20043;-81
2023/01/16 07:52:31;;;;;;;11.45;1.00;;;4.70;99.90;;;3.18;98.54;99149.25;4881050;28;20036;-81
2023/01/16 07:54:57;;;;;;;6.25;1.00;;;4.70;99.90;;;3.16;98.90;99145.00;4906507;23;20054;-82
2023/01/16 07:57:47;;;;;;;4.63;0.90;;;4.70;99.90;;;3.18;98.75;99132.78;4928464;28;20038;-82
2023/01/16 08:00:16;;;;;;;9.27;1.20;;;4.70;99.90;;;3.18;98.54;99138.00;4913244;28;20201;-82
2023/01/16 08:02:43;;;;;;;4.80;1.15;;;4.70;99.90;;;3.20;98.58;99144.81;4943632;28;20049;-81
2023/01/16 08:05:15;;;;;;;5.20;0.73;;;4.80;99.90;;;3.22;98.50;99140.41;4905844;28;20042;-79
2023/01/16 08:07:44;;;;;;;3.13;0.80;;;;;;;3.24;98.35;99142.91;4901402;28;20038;-80
2023/01/16 08:10:18;;;;;;;5.70;1.20;;;4.80;99.90;;;3.26;98.34;99131.56;4897405;28;20046;-82
2023/01/16 08:12:43;;;;;;;4.97;0.90;;;4.80;99.90;;;3.28;98.67;99139.28;4892094;28;20053;-82
2023/01/16 08:15:09;;;;;;;8.73;1.10;;;4.80;99.90;;;3.28;98.53;99134.94;4907649;28;20042;-82
2023/01/16 08:17:39;;;;;;;3.55;1.10;;;4.80;99.90;;;3.30;98.25;99137.47;4910558;28;20142;-81
2023/01/16 08:20:11;;;;;;;8.13;1.10;;;4.80;99.90;;;3.35;98.59;99134.66;4885059;28;20045;-82
2023/01/16 08:22:49;;;;;;;6.10;0.95;;;4.80;99.90;;;3.31;98.06;99126.16;4894491;28;20047;-81
2023/01/16 08:25:18;;;;;;;9.68;1.27;;;4.80;99.90;;;3.32;98.27;99129.59;4924049;28;20138;-81
2023/01/16 08:27:45;;;;;;;7.85;1.30;;;4.90;99.90;;;3.34;98.09;99118.22;4911987;28;20058;-81
2023/01/16 08:30:18;;;;;;;11.88;1.00;;;4.90;99.90;;;3.38;98.10;99111.13;4899836;28;20702;-82
2023/01/16 08:32:44;;;;;;;5.82;0.90;;;4.90;99.90;;;3.42;97.77;99116.13;4882198;28;20046;-81
2023/01/16 08:35:10;;;;;;;4.55;0.98;;;4.90;99.90;;;3.45;97.34;99110.78;4918311;23;20048;-82
2023/01/16 08:37:36;;;;;;;6.38;1.30;;;5.00;99.90;;;3.50;97.43;99102.81;4936133;28;20097;-81
2023/01/16 08:40:10;;;;;;;4.10;0.82;;;5.00;99.90;;;3.59;97.25;99107.59;4921591;28;20090;-81
2023/01/16 08:51:22;;;;;;;6.50;1.02;;;5.30;99.90;;;3.86;95.02;99102.06;4906229;28;20105;-82
2023/01/16 08:53:52;;;;;;;4.05;0.93;;;5.40;99.90;;;3.96;94.65;99090.34;4890187;23;20068;-80
2023/01/16 08:56:31;;;;;;;;;;;;;;;;;;;;;
2023/01/16 08:58:57;;;;;;;6.38;1.00;;;5.40;99.90;;;4.00;94.11;99096.25;4907073;28;20331;-81
2023/01/16 09:01:36;;;;;;;4.45;0.80;;;;;;;4.01;93.48;99093.56;4923055;28;20031;-82
2023/01/16 09:04:15;;;;;;;5.60;1.00;;;;;;;4.09;93.38;99093.22;4939166;28;20055;-82
2023/01/16 09:09:37;;;;;;;5.80;1.10;;;5.60;99.90;;;4.15;93.14;99084.25;4886223;28;20156;-81
2023/01/16 09:15:26;;;;;;;8.07;1.10;;;5.70;99.90;;;4.23;92.89;99076.94;4923751;23;20434;-82
2023/01/16 09:18:28;;;;;;;6.85;1.67;;;;;;;4.33;92.61;99083.41;4895582;28;20169;-82
2023/01/16 09:21:54;;;;;;;6.38;0.95;;;;;;;4.46;92.12;99081.06;4911253;28;20134;-82
2023/01/16 09:25:15;;;;;;;;;;;;;;;;;;;;;
2023/01/16 09:27:46;;;;;;;4.72;0.95;;;5.90;99.90;;;4.43;91.42;99068.19;4825355;29;20581;-82
2023/01/16 09:30:36;;;;;;;10.48;1.00;;;;;;;4.42;91.30;99067.34;4793013;29;20510;-81
2023/01/16 09:33:04;;;;;;;3.80;0.88;;;5.90;99.90;;;4.37;91.27;99058.91;4855167;28;20050;-81
2023/01/16 09:36:03;;;;;;;4.05;1.00;;;5.90;99.90;;;4.60;91.34;99065.63;4885015;28;20046;-82
2023/01/16 09:38:53;;;;;;;5.53;1.02;;;;;;;4.84;90.93;99062.75;4810460;28;20065;-82
2023/01/16 09:45:31;;;;;;;4.45;0.95;;;6.40;99.90;;;5.25;89.09;99052.81;4902834;28;20053;-82
2023/01/16 09:48:26;;;;;;;6.30;1.08;;;6.60;99.90;;;5.38;89.04;99055.63;4869156;28;20035;-82
2023/01/16 09:51:03;;;;;;;6.45;1.13;;;6.70;99.90;;;5.47;88.47;99042.09;4907150;29;20035;-81
2023/01/16 10:00:09;;;;;;;8.55;1.30;;;;;;;4.80;88.33;99014.25;4919214;28;20060;-80
2023/01/16 10:02:35;;;;;;;;;;;6.30;99.90;;;4.59;88.77;99011.78;4907076;28;20122;-80
2023/01/16 10:05:05;;;;;;;7.95;1.00;;;6.20;99.90;;;4.58;89.34;99015.31;4927307;28;19926;-81
2023/01/16 10:08:01;;;;;;;7.32;1.27;;;6.10;99.90;;;4.47;90.32;99005.41;4902791;28;20039;-81
2023/01/16 10:11:12;;;;;;;8.85;0.98;;;6.00;99.90;;;4.44;90.65;98994.28;4914818;28;20063;-81
2023/01/16 10:14:22;;;;;;;6.68;1.17;;;;;;;4.35;91.15;98992.97;4884426;28;20043;-82
2023/01/16 10:17:04;;;;;;;5.32;1.00;;;6.00;99.90;;;4.48;91.45;98985.41;4840057;28;20043;-81
2023/01/16 10:19:54;;;;;;;5.55;1.17;;;6.10;99.90;;;4.65;91.21;98982.81;4897860;28;20106;-81
2023/01/16 10:23:23;;;;;;;6.90;0.90;;;6.20;99.90;;;4.62;90.17;98974.28;4905501;28;20065;-81
2023/01/16 10:26:03;;;;;;;4.70;0.95;;;6.30;99.90;;;4.75;89.98;98966.69;4924054;28;20090;-81
2023/01/16 10:29:04;;;;;;;6.60;1.45;;;;;;;4.78;89.95;98964.78;4902280;28;20073;-80
2023/01/16 10:35:43;;;;;;;14.90;1.52;;;8.20;99.90;;;4.75;89.14;98967.53;4909585;28;20419;-81
2023/01/16 10:38:56;;;;;;;6.90;1.30;;;6.30;99.90;;;4.77;89.34;98957.03;4866313;29;20032;-82
2023/01/16 10:50:27;;;;;;;7.20;1.52;;;6.30;99.90;;;4.82;88.58;98942.84;4917817;28;20085;-81
2023/01/16 10:53:17;;;;;;;6.88;1.40;;;6.40;99.90;;;4.95;88.81;98930.00;4889770;28;20047;-81
2023/01/16 10:55:57;;;;;;;3.97;1.10;;;6.40;99.90;;;4.94;88.55;98926.53;4887639;28;20038;-81
2023/01/16 10:58:42;;;;;;;11.27;1.33;;;6.50;99.90;;;5.08;88.30;98914.56;4857396;28;20165;-81
2023/01/16 11:01:35;;;;;;;3.20;1.25;;;6.50;99.90;;;5.05;88.26;98912.09;4878937;28;20134;-82
2023/01/16 11:04:18;;;;;;;7.93;1.25;;;6.50;99.90;;;5.13;88.28;98905.56;4907380;28;20043;-82
2023/01/16 11:06:45;;;;;;;6.55;1.50;;;6.60;99.90;;;5.24;88.43;98906.75;4861239;28;20036;-81
2023/01/16 11:09:23;;;;;;;6.90;1.38;;;6.70;99.90;;;5.26;87.69;98894.47;4886145;28;20042;-82
2023/01/16 11:20:49;;;;;;;6.05;1.48;;;6.80;99.90;;;5.27;86.79;98873.50;4896135;28;20045;-82
2023/01/16 11:23:26;;;;;;;10.57;1.73;;;6.80;99.90;;;5.33;86.59;98872.31;4930914;28;20037;-81
2023/01/16 11:26:02;;;;;;;5.25;1.50;;;6.70;99.90;;;5.25;86.15;98861.47;4884579;28;20118;-81
2023/01/16 11:28:34;;;;;;;8.75;1.30;;;6.70;99.90;;;5.29;86.49;98855.13;4900458;28;20043;-82
2023/01/16 11:31:30;;;;;;;5.68;0.85;;;6.80;99.90;;;5.20;85.63;98843.44;4957241;28;20027;-81
2023/01/16 11:34:20;;;;;;;7.35;1.23;;;6.80;99.90;;;5.20;85.52;98837.38;4879004;28;20067;-81
2023/01/16 11:36:48;;;;;;;7.82;1.30;;;6.80;99.90;;;5.22;85.36;98838.16;4848593;28;20030;-82
2023/01/16 11:39:27;;;;;;;8.07;1.50;;;6.80;99.90;;;5.31;85.47;98829.81;4918129;28;20035;-80
2023/01/16 11:42:01;;;;;;;6.90;2.00;;;6.80;99.90;;;5.27;85.76;98817.84;4911261;28;20076;-82
2023/01/16 11:47:42;;;;;;;3.90;1.15;;;6.80;99.90;;;5.31;84.46;98806.31;4922545;28;20038;-81
2023/01/16 11:50:40;;;;;;;5.10;1.08;;;6.80;99.90;;;5.26;84.82;98797.91;4845874;29;20084;-81
2023/01/16 11:53:08;;;;;;;3.30;1.23;;;6.80;99.90;;;5.36;84.52;98796.47;4885591;28;20471;-82
2023/01/16 11:56:04;;;;;;;8.00;2.20;;;6.80;99.90;;;5.32;84.56;98792.34;4866631;28;20030;-82
2023/01/16 11:59:11;;;;;;;7.32;1.30;;;6.90;99.90;;;5.27;83.87;98779.56;4871381;28;20741;-82
2023/01/16 12:02:28;;;;;;;6.07;1.50;;;6.80;99.90;;;5.36;83.36;98773.00;4895202;28;21454;-82
2023/01/16 12:08:25;;;;;;;5.53;1.17;;;6.90;99.90;;;5.35;83.55;98774.72;4917610;28;20139;-80
2023/01/16 12:11:06;;;;;;;6.30;1.30;;;6.90;99.90;;;5.35;83.24;98779.13;4918813;28;20043;-83
2023/01/16 12:17:18;;;;;;;3.97;1.25;;;6.90;99.90;;;5.53;83.81;98778.09;4908673;28;20049;-82
2023/01/16 12:20:31;;;;;;;5.00;1.23;;;6.90;99.90;;;5.50;83.86;98762.59;4913568;28;20043;-82
2023/01/16 12:24:00;;;;;;;3.17;1.00;;;7.00;99.90;;;5.55;82.66;98757.97;4915308;28;20070;-81
2023/01/16 12:26:35;;;;;;;5.90;1.50;;;7.00;99.90;;;5.52;82.90;98763.34;4861121;29;20039;-83
2023/01/16 12:29:52;;;;;;;4.27;1.27;;;6.90;99.90;;;5.38;83.19;98752.88;4888854;28;20043;-84
2023/01/16 12:32:42;;;;;;;7.72;1.30;;;6.90;99.90;;;5.37;83.02;98735.50;4914361;28;20263;-83
2023/01/16 12:35:38;;;;;;;4.88;1.30;;;6.90;99.90;;;5.38;83.05;98732.00;4888046;28;20621;-83
2023/01/16 12:38:26;;;;;;;7.78;1.30;;;6.90;99.90;;;5.39;83.83;98723.22;4918378;28;20985;-82